createdAt,value
2022-09-28T00:01:21.446Z,76.69
2022-09-28T00:03:51.851Z,76.18
2022-09-28T00:06:22.124Z,76.58
2022-09-28T00:08:50.488Z,76.55
2022-09-28T00:11:20.038Z,76.27
2022-09-28T00:13:52.504Z,77.43
2022-09-28T00:16:24.000Z,76.90
2022-09-28T00:18:52.360Z,75.95
2022-09-28T00:21:29.042Z,75.90
2022-09-28T00:24:25.242Z,74.79
2022-09-28T00:26:57.290Z,76.64
2022-09-28T00:29:27.788Z,75.83
2022-09-28T00:32:02.600Z,77.28
2022-09-28T00:34:34.756Z,76.82
2022-09-28T00:37:05.288Z,77.21
2022-09-28T00:39:33.069Z,76.15
2022-09-28T00:42:03.208Z,75.18
2022-09-28T00:44:40.323Z,76.24
2022-09-28T00:47:07.730Z,75.58
2022-09-28T00:49:44.272Z,75.07
2022-09-28T00:52:17.974Z,74.79
2022-09-28T00:54:47.979Z,74.50
2022-09-28T00:57:16.414Z,74.09
2022-09-28T00:59:44.476Z,74.18
2022-09-28T01:02:12.598Z,74.37
2022-09-28T01:04:40.181Z,73.15
2022-09-28T01:07:09.206Z,73.85
2022-09-28T01:09:40.471Z,74.25
2022-09-28T01:12:08.176Z,73.93
2022-09-28T01:14:35.760Z,74.39
2022-09-28T01:17:12.388Z,72.41
2022-09-28T01:19:51.373Z,73.45
2022-09-28T01:22:34.530Z,73.29
2022-09-28T01:25:04.922Z,74.78
2022-09-28T01:27:52.375Z,74.68
2022-09-28T01:30:21.674Z,74.93
2022-09-28T01:32:57.687Z,74.59
2022-09-28T01:35:55.668Z,74.28
2022-09-28T01:38:33.616Z,74.34
2022-09-28T01:41:01.930Z,73.45
2022-09-28T01:43:34.436Z,73.34
2022-09-28T01:46:26.408Z,73.36
2022-09-28T01:48:58.860Z,75.02
2022-09-28T01:51:36.516Z,75.48
2022-09-28T01:54:19.663Z,77.05
2022-09-28T01:56:55.669Z,75.32
2022-09-28T01:59:33.122Z,74.58
2022-09-28T02:02:09.938Z,74.07
2022-09-28T02:05:22.768Z,75.59
2022-09-28T02:08:07.994Z,75.90
2022-09-28T02:10:51.648Z,77.29
2022-09-28T02:13:35.493Z,76.57
2022-09-28T02:16:14.716Z,76.27
2022-09-28T02:18:43.468Z,75.52
2022-09-28T02:21:41.715Z,74.95
2022-09-28T02:24:21.529Z,77.63
2022-09-28T02:26:51.947Z,75.68
2022-09-28T02:29:19.514Z,77.23
2022-09-28T02:31:47.671Z,77.64
2022-09-28T02:34:15.354Z,77.59
2022-09-28T02:36:45.001Z,77.45
2022-09-28T02:39:17.895Z,77.86
2022-09-28T02:42:11.769Z,79.72
2022-09-28T02:44:39.629Z,79.30
2022-09-28T02:48:04.729Z,77.23
2022-09-28T02:51:06.485Z,79.38
2022-09-28T02:53:53.502Z,79.17
2022-09-28T02:56:51.083Z,78.19
2022-09-28T02:59:33.409Z,77.00
2022-09-28T03:02:16.377Z,77.56
2022-09-28T03:05:25.954Z,78.09
2022-09-28T03:13:48.167Z,77.75
2022-09-28T03:19:00.649Z,77.00
2022-09-28T03:21:28.369Z,77.73
2022-09-28T03:23:55.959Z,78.68
2022-09-28T03:26:23.845Z,76.89
2022-09-28T03:28:51.557Z,76.42
2022-09-28T03:31:19.886Z,76.27
2022-09-28T03:33:47.824Z,75.69
2022-09-28T03:36:15.666Z,76.02
2022-09-28T03:38:43.317Z,75.56
2022-09-28T03:41:11.255Z,75.04
2022-09-28T03:43:38.962Z,74.58
2022-09-28T03:46:06.784Z,74.01
2022-09-28T03:48:36.310Z,73.48
2022-09-28T03:51:09.187Z,73.64
2022-09-28T03:53:39.901Z,73.47
2022-09-28T03:56:17.490Z,74.77
2022-09-28T03:58:45.352Z,73.17
2022-09-28T04:01:17.629Z,72.22
2022-09-28T04:03:46.758Z,72.55
2022-09-28T04:06:14.871Z,71.74
2022-09-28T04:08:43.478Z,71.00
2022-09-28T04:11:11.779Z,71.15
2022-09-28T04:13:39.382Z,71.36
2022-09-28T04:16:07.609Z,71.98
2022-09-28T04:18:35.777Z,72.09
2022-09-28T04:21:09.052Z,71.79
2022-09-28T04:23:39.265Z,71.70
2022-09-28T04:26:11.301Z,71.25
2022-09-28T04:29:04.048Z,70.75
2022-09-28T04:31:42.316Z,70.39
2022-09-28T04:34:10.825Z,72.92
2022-09-28T04:36:38.578Z,71.15
2022-09-28T04:39:06.294Z,71.29
2022-09-28T04:41:34.396Z,71.48
2022-09-28T04:44:02.340Z,71.02
2022-09-28T04:46:30.299Z,71.07
2022-09-28T04:48:58.842Z,71.39
2022-09-28T04:51:26.904Z,71.81
2022-09-28T04:53:55.474Z,71.02
2022-09-28T04:56:23.500Z,71.87
2022-09-28T04:58:52.871Z,73.16
2022-09-28T05:01:24.351Z,72.47
2022-09-28T05:03:54.163Z,72.70
2022-09-28T05:06:22.991Z,72.08
2022-09-28T05:08:52.008Z,72.50
2022-09-28T05:11:21.425Z,73.52
2022-09-28T05:13:50.469Z,73.65
2022-09-28T05:16:18.434Z,73.44
2022-09-28T05:18:47.496Z,72.96
2022-09-28T05:21:15.869Z,73.05
2022-09-28T05:23:47.371Z,72.44
2022-09-28T05:26:17.172Z,70.54
2022-09-28T05:28:44.785Z,69.98
2022-09-28T05:31:14.532Z,69.28
2022-09-28T05:33:43.210Z,67.87
2022-09-28T05:36:11.878Z,69.03
2022-09-28T05:38:39.490Z,69.00
2022-09-28T05:41:07.542Z,69.85
2022-09-28T05:43:36.356Z,70.52
2022-09-28T05:46:05.812Z,69.90
2022-09-28T05:48:34.654Z,68.92
2022-09-28T05:51:03.076Z,69.30
2022-09-28T05:53:30.844Z,69.60
2022-09-28T05:55:59.700Z,69.93
2022-09-28T05:58:28.670Z,70.43
2022-09-28T06:00:56.904Z,69.79
2022-09-28T06:03:25.365Z,70.01
2022-09-28T06:05:53.213Z,68.51
2022-09-28T06:08:21.430Z,68.72
2022-09-28T06:10:49.513Z,68.67
2022-09-28T06:13:17.035Z,68.26
2022-09-28T06:15:46.404Z,67.67
2022-09-28T06:18:15.153Z,67.12
2022-09-28T06:20:43.366Z,67.37
2022-09-28T06:23:13.359Z,68.23
2022-09-28T06:25:41.663Z,67.59
2022-09-28T06:28:14.144Z,66.78
2022-09-28T06:30:44.008Z,67.00
2022-09-28T06:33:13.907Z,65.84
2022-09-28T06:35:42.532Z,65.92
2022-09-28T06:38:11.011Z,69.23
2022-09-28T06:40:39.442Z,70.07
2022-09-28T06:43:11.299Z,70.54
2022-09-28T06:45:51.753Z,71.03
2022-09-28T06:48:20.634Z,69.44
2022-09-28T06:50:50.103Z,68.74
2022-09-28T06:53:17.895Z,69.10
2022-09-28T06:55:50.623Z,67.69
2022-09-28T06:58:20.738Z,67.07
2022-09-28T07:00:51.533Z,66.03
2022-09-28T07:03:22.110Z,67.07
2022-09-28T07:05:54.053Z,67.87
2022-09-28T07:08:32.879Z,67.99
2022-09-28T07:11:05.833Z,68.23
2022-09-28T07:13:49.733Z,69.01
2022-09-28T07:16:24.133Z,66.94
2022-09-28T07:18:54.431Z,68.76
2022-09-28T07:21:29.718Z,68.89
2022-09-28T07:24:00.066Z,67.62
2022-09-28T07:26:33.370Z,66.86
2022-09-28T07:29:01.313Z,66.12
2022-09-28T07:31:29.731Z,66.45
2022-09-28T07:33:58.704Z,65.78
2022-09-28T07:36:27.052Z,65.36
2022-09-28T07:38:54.654Z,63.19
2022-09-28T07:41:32.522Z,62.77
2022-09-28T07:44:05.421Z,63.20
2022-09-28T07:46:34.600Z,63.66
2022-09-28T07:49:08.363Z,64.16
2022-09-28T07:51:39.580Z,66.10
2022-09-28T07:54:09.391Z,63.89
2022-09-28T07:56:37.210Z,63.09
2022-09-28T07:59:05.389Z,62.78
2022-09-28T08:01:33.392Z,62.57
2022-09-28T08:04:01.570Z,63.63
2022-09-28T08:06:30.387Z,63.86
2022-09-28T08:08:59.997Z,63.51
2022-09-28T08:11:30.284Z,63.10
2022-09-28T08:13:58.786Z,61.38
2022-09-28T08:16:28.113Z,59.50
2022-09-28T08:18:56.119Z,59.76
2022-09-28T08:21:42.553Z,60.39
2022-09-28T08:24:14.312Z,60.82
2022-09-28T08:26:43.154Z,58.97
2022-09-28T08:29:11.548Z,56.22
2022-09-28T08:31:39.307Z,54.23
2022-09-28T08:34:07.483Z,54.98
2022-09-28T08:36:37.140Z,55.15
2022-09-28T08:39:05.844Z,54.96
2022-09-28T08:41:42.099Z,52.50
2022-09-28T08:44:24.376Z,51.49
2022-09-28T08:47:02.072Z,50.53
2022-09-28T08:49:41.573Z,52.21
2022-09-28T08:52:23.561Z,51.70
2022-09-28T08:54:54.948Z,49.48
2022-09-28T08:57:48.328Z,46.70
2022-09-28T09:00:21.251Z,46.94
2022-09-28T09:02:49.665Z,44.89
2022-09-28T09:05:20.961Z,45.28
2022-09-28T09:08:04.482Z,44.56
2022-09-28T09:10:35.368Z,45.29
2022-09-28T09:13:38.395Z,44.55
2022-09-28T09:16:19.036Z,43.44
2022-09-28T09:19:04.768Z,42.48
2022-09-28T09:22:01.180Z,42.36
2022-09-28T09:24:54.948Z,42.73
2022-09-28T09:28:02.482Z,42.17
2022-09-28T09:30:41.416Z,41.66
2022-09-28T09:33:30.475Z,40.53
2022-09-28T09:36:10.225Z,39.70
2022-09-28T09:39:22.385Z,38.89
2022-09-28T09:42:20.376Z,37.86
2022-09-28T09:45:12.413Z,40.03
2022-09-28T09:47:43.016Z,38.98
2022-09-28T09:50:16.551Z,38.81
2022-09-28T09:52:52.042Z,39.21
2022-09-28T09:55:30.158Z,39.00
2022-09-28T09:58:10.746Z,37.09
2022-09-28T10:00:44.367Z,38.35
2022-09-28T10:03:30.246Z,37.93
2022-09-28T10:06:27.464Z,36.97
2022-09-28T10:09:06.037Z,37.19
2022-09-28T10:11:42.527Z,37.14
2022-09-28T10:14:22.196Z,36.34
2022-09-28T10:16:53.450Z,35.85
2022-09-28T10:19:32.266Z,37.12
2022-09-28T10:22:06.764Z,37.51
2022-09-28T10:24:40.237Z,36.67
2022-09-28T10:27:15.840Z,38.25
2022-09-28T10:29:52.181Z,38.24
2022-09-28T10:32:37.526Z,38.52
2022-09-28T10:35:27.602Z,37.93
2022-09-28T10:38:19.197Z,38.24
2022-09-28T10:40:54.377Z,40.11
2022-09-28T10:43:25.167Z,39.31
2022-09-28T10:46:21.452Z,37.59
2022-09-28T10:48:52.390Z,38.86
2022-09-28T10:51:39.239Z,38.13
2022-09-28T10:54:24.341Z,38.47
2022-09-28T10:56:54.489Z,37.05
2022-09-28T10:59:29.971Z,37.68
2022-09-28T11:02:35.890Z,38.06
2022-09-28T11:05:07.005Z,38.42
2022-09-28T11:07:46.018Z,37.16
2022-09-28T11:10:24.519Z,37.65
2022-09-28T11:12:54.386Z,39.74
2022-09-28T11:15:27.385Z,39.24
2022-09-28T11:17:55.920Z,38.42
2022-09-28T11:20:27.418Z,38.60
2022-09-28T11:23:15.826Z,38.36
2022-09-28T11:25:43.924Z,37.12
2022-09-28T11:28:23.406Z,39.33
2022-09-28T11:30:53.143Z,36.90
2022-09-28T11:33:38.963Z,37.87
2022-09-28T11:36:14.057Z,37.13
2022-09-28T11:39:14.403Z,40.32
2022-09-28T11:42:02.117Z,39.58
2022-09-28T11:44:44.764Z,39.08
2022-09-28T11:47:37.361Z,38.60
2022-09-28T11:50:22.935Z,40.58
2022-09-28T11:53:00.305Z,40.84
2022-09-28T11:55:36.649Z,41.31
2022-09-28T11:58:15.961Z,41.16
2022-09-28T12:00:54.457Z,40.34
2022-09-28T12:03:34.133Z,41.33
2022-09-28T12:06:07.848Z,40.32
2022-09-28T12:08:44.424Z,39.54
2022-09-28T12:11:22.100Z,40.94
2022-09-28T12:13:54.309Z,40.91
2022-09-28T12:17:00.530Z,40.50
2022-09-28T12:19:21.843Z,40.05
2022-09-28T12:21:53.281Z,41.19
2022-09-28T12:24:48.449Z,40.52
2022-09-28T12:27:32.606Z,41.22
2022-09-28T12:30:25.702Z,41.24
2022-09-28T12:33:00.911Z,40.87
2022-09-28T12:35:41.449Z,42.24
2022-09-28T12:38:35.565Z,41.67
2022-09-28T12:41:03.425Z,41.75
2022-09-28T12:43:56.377Z,41.70
2022-09-28T12:46:30.007Z,42.90
2022-09-28T12:52:49.898Z,41.12
2022-09-28T12:55:27.574Z,43.62
2022-09-28T12:58:01.612Z,41.29
2022-09-28T13:00:49.855Z,41.10
2022-09-28T13:03:38.277Z,42.17
2022-09-28T13:06:05.756Z,43.03
2022-09-28T13:08:56.233Z,41.85
2022-09-28T13:11:26.423Z,41.58
2022-09-28T13:14:18.739Z,41.84
2022-09-28T13:17:00.900Z,41.57
2022-09-28T13:19:41.251Z,42.09
2022-09-28T13:22:45.558Z,41.99
2022-09-28T13:25:18.004Z,41.71
2022-09-28T13:27:55.281Z,42.90
2022-09-28T13:30:23.453Z,42.57
2022-09-28T13:32:51.914Z,41.97
2022-09-28T13:35:20.089Z,42.52
2022-09-28T13:37:48.844Z,42.62
2022-09-28T13:40:16.538Z,42.01
2022-09-28T13:42:53.007Z,42.17
2022-09-28T13:45:20.782Z,42.78
2022-09-28T13:47:51.807Z,43.45
2022-09-28T13:50:38.637Z,42.59
2022-09-28T13:53:43.863Z,42.00
2022-09-28T13:56:33.220Z,41.12
2022-09-28T13:59:01.148Z,41.11
2022-09-28T14:01:41.611Z,41.38
2022-09-28T14:04:15.728Z,42.80
2022-09-28T14:06:55.648Z,43.68
2022-09-28T14:09:44.403Z,43.14
2022-09-28T14:12:33.183Z,43.03
2022-09-28T14:15:03.165Z,42.87
2022-09-28T14:17:51.590Z,43.68
2022-09-28T14:20:23.478Z,44.58
2022-09-28T14:23:12.164Z,43.21
2022-09-28T14:26:02.733Z,44.67
2022-09-28T14:28:49.213Z,43.29
2022-09-28T14:31:28.258Z,44.38
2022-09-28T14:33:58.967Z,43.88
2022-09-28T14:37:00.813Z,44.72
2022-09-28T14:39:51.353Z,44.65
2022-09-28T14:42:24.639Z,46.92
2022-09-28T14:45:06.842Z,46.56
2022-09-28T14:47:42.805Z,47.15
2022-09-28T14:50:27.011Z,46.47
2022-09-28T14:52:57.485Z,46.46
2022-09-28T14:55:31.577Z,45.79
2022-09-28T14:57:59.657Z,45.42
2022-09-28T15:00:30.470Z,45.25
2022-09-28T15:03:07.848Z,45.94
2022-09-28T15:05:47.109Z,46.64
2022-09-28T15:08:17.399Z,47.06
2022-09-28T15:10:50.276Z,47.34
2022-09-28T15:13:25.706Z,46.82
2022-09-28T15:16:10.447Z,48.23
2022-09-28T15:18:52.936Z,48.67
2022-09-28T15:21:21.532Z,48.81
2022-09-28T15:23:49.803Z,48.17
2022-09-28T15:26:27.532Z,47.38
2022-09-28T15:28:55.825Z,46.77
2022-09-28T15:31:26.827Z,48.20
2022-09-28T15:34:12.991Z,47.65
2022-09-28T15:36:48.085Z,47.62
2022-09-28T15:39:20.943Z,48.40
2022-09-28T15:41:50.952Z,48.31
2022-09-28T15:44:53.989Z,49.31
2022-09-28T15:47:27.618Z,51.48
2022-09-28T15:50:03.106Z,50.64
2022-09-28T15:52:39.878Z,50.21
2022-09-28T15:55:22.389Z,51.26
2022-09-28T15:57:50.864Z,49.99
2022-09-28T16:00:21.180Z,51.04
2022-09-28T16:03:20.481Z,51.12
2022-09-28T16:05:57.002Z,50.41
2022-09-28T16:08:31.655Z,50.97
2022-09-28T16:11:17.414Z,51.33
2022-09-28T16:13:54.496Z,52.64
2022-09-28T16:16:30.037Z,52.12
2022-09-28T16:19:01.116Z,53.42
2022-09-28T16:21:39.007Z,54.08
2022-09-28T16:24:08.536Z,52.96
2022-09-28T16:26:38.991Z,54.81
2022-09-28T16:29:25.574Z,54.85
2022-09-28T16:31:55.656Z,55.66
2022-09-28T16:34:27.332Z,57.17
2022-09-28T16:36:54.947Z,56.22
2022-09-28T16:39:22.917Z,56.84
2022-09-28T16:41:54.050Z,57.13
2022-09-28T16:44:25.949Z,56.92
2022-09-28T16:46:57.099Z,56.14
2022-09-28T16:49:26.366Z,56.83
2022-09-28T16:51:54.166Z,57.03
2022-09-28T16:54:43.441Z,57.12
2022-09-28T16:57:13.533Z,55.43
2022-09-28T16:59:41.595Z,54.29
2022-09-28T17:02:42.095Z,54.14
2022-09-28T17:05:07.143Z,53.92
2022-09-28T17:07:34.931Z,55.34
2022-09-28T17:10:02.557Z,54.48
2022-09-28T17:12:31.230Z,55.24
2022-09-28T17:15:00.100Z,55.42
2022-09-28T17:17:29.963Z,54.84
2022-09-28T17:19:57.814Z,54.86
2022-09-28T17:22:25.395Z,55.24
2022-09-28T17:24:52.993Z,54.78
2022-09-28T17:27:21.646Z,53.55
2022-09-28T17:29:49.180Z,56.86
2022-09-28T17:32:19.646Z,55.53
2022-09-28T17:34:55.882Z,55.16
2022-09-28T17:37:36.223Z,54.95
2022-09-28T17:40:13.031Z,55.12
2022-09-28T17:42:40.553Z,56.04
2022-09-28T17:45:08.524Z,55.21
2022-09-28T17:47:36.220Z,54.79
2022-09-28T17:50:22.594Z,54.61
2022-09-28T17:52:52.467Z,54.43
2022-09-28T17:55:22.325Z,56.03
2022-09-28T17:57:51.348Z,55.20
2022-09-28T18:00:19.494Z,54.46
2022-09-28T18:02:47.492Z,55.64
2022-09-28T18:05:15.267Z,54.75
2022-09-28T18:07:47.435Z,54.80
2022-09-28T18:10:21.385Z,53.54
2022-09-28T18:12:50.537Z,54.72
2022-09-28T18:15:19.258Z,55.36
2022-09-28T18:17:46.965Z,53.87
2022-09-28T18:20:14.884Z,54.73
2022-09-28T18:22:42.720Z,53.32
2022-09-28T18:25:11.148Z,52.79
2022-09-28T18:27:38.801Z,53.03
2022-09-28T18:30:07.355Z,52.94
2022-09-28T18:32:39.249Z,53.30
2022-09-28T18:35:09.038Z,54.28
2022-09-28T18:37:40.096Z,54.13
2022-09-28T18:40:10.500Z,53.92
2022-09-28T18:42:39.885Z,54.01
2022-09-28T18:45:12.510Z,54.52
2022-09-28T18:47:40.198Z,54.66
2022-09-28T18:50:08.554Z,55.12
2022-09-28T18:52:37.834Z,54.94
2022-09-28T18:55:07.891Z,55.28
2022-09-28T18:57:36.581Z,55.75
2022-09-28T19:00:07.683Z,54.23
2022-09-28T19:02:35.726Z,55.94
2022-09-28T19:05:05.697Z,54.86
2022-09-28T19:07:33.936Z,55.82
2022-09-28T19:10:01.473Z,55.87
2022-09-28T19:12:29.425Z,55.41
2022-09-28T19:14:56.995Z,55.76
2022-09-28T19:17:24.510Z,55.25
2022-09-28T19:19:52.496Z,54.53
2022-09-28T19:22:20.076Z,55.90
2022-09-28T19:24:47.752Z,55.79
2022-09-28T19:27:15.680Z,57.05
2022-09-28T19:29:43.342Z,56.02
2022-09-28T19:32:12.682Z,55.47
2022-09-28T19:34:40.715Z,57.69
2022-09-28T19:37:08.257Z,58.33
2022-09-28T19:39:35.910Z,56.68
2022-09-28T19:42:03.869Z,57.93
2022-09-28T19:44:33.286Z,57.60
2022-09-28T19:47:07.104Z,57.74
2022-09-28T19:49:37.465Z,58.12
2022-09-28T19:52:14.365Z,58.15
2022-09-28T19:54:44.574Z,57.73
2022-09-28T19:57:14.491Z,57.13
2022-09-28T19:59:42.488Z,58.10
2022-09-28T20:02:10.691Z,57.38
2022-09-28T20:04:38.704Z,57.91
2022-09-28T20:07:06.195Z,57.93
2022-09-28T20:09:33.812Z,57.78
2022-09-28T20:12:02.015Z,57.52
2022-09-28T20:14:33.981Z,57.79
2022-09-28T20:17:04.253Z,57.98
2022-09-28T20:19:31.840Z,58.19
2022-09-28T20:22:03.245Z,59.13
2022-09-28T20:24:32.046Z,59.55
2022-09-28T20:27:01.326Z,59.53
2022-09-28T20:29:31.812Z,59.23
2022-09-28T20:32:00.448Z,59.51
2022-09-28T20:34:28.070Z,60.52
2022-09-28T20:36:55.754Z,61.39
2022-09-28T20:39:23.751Z,61.65
2022-09-28T20:41:51.766Z,62.68
2022-09-28T20:44:19.538Z,61.87
2022-09-28T20:46:51.232Z,62.57
2022-09-28T20:49:18.893Z,63.57
2022-09-28T20:51:46.778Z,63.17
2022-09-28T20:54:14.457Z,63.23
2022-09-28T20:56:42.133Z,63.86
2022-09-28T20:59:12.075Z,62.83
2022-09-28T21:01:40.337Z,62.69
2022-09-28T21:04:10.274Z,62.35
2022-09-28T21:06:40.458Z,62.19
2022-09-28T21:09:10.581Z,64.27
2022-09-28T21:11:39.826Z,63.36
2022-09-28T21:14:09.694Z,63.60
2022-09-28T21:16:38.167Z,62.86
2022-09-28T21:19:06.070Z,61.54
2022-09-28T21:21:33.655Z,62.71
2022-09-28T21:24:02.057Z,61.70
2022-09-28T21:26:31.330Z,62.67
2022-09-28T21:29:07.466Z,61.87
2022-09-28T21:31:45.965Z,62.33
2022-09-28T21:34:19.390Z,62.66
2022-09-28T21:36:54.468Z,62.47
2022-09-28T21:39:22.611Z,61.83
2022-09-28T21:41:50.417Z,62.58
2022-09-28T21:44:17.964Z,62.62
2022-09-28T21:46:45.495Z,62.92
2022-09-28T21:49:14.280Z,63.54
2022-09-28T21:51:41.950Z,64.26
2022-09-28T21:54:09.560Z,63.04
2022-09-28T21:56:37.420Z,65.80
2022-09-28T21:59:04.931Z,64.87
2022-09-28T22:01:32.701Z,65.25
2022-09-28T22:04:00.820Z,64.93
2022-09-28T22:06:28.369Z,64.72
2022-09-28T22:08:57.086Z,64.85
2022-09-28T22:11:28.111Z,63.80
2022-09-28T22:14:00.077Z,63.51
2022-09-28T22:16:31.361Z,63.22
2022-09-28T22:18:59.541Z,63.42
2022-09-28T22:21:29.999Z,63.38
2022-09-28T22:24:00.983Z,64.41
2022-09-28T22:26:30.222Z,63.35
2022-09-28T22:29:00.781Z,63.35
2022-09-28T22:31:31.638Z,63.49
2022-09-28T22:34:00.403Z,64.00
2022-09-28T22:36:28.521Z,64.37
2022-09-28T22:38:57.554Z,64.62
2022-09-28T22:41:26.199Z,66.72
2022-09-28T22:43:54.816Z,65.39
2022-09-28T22:46:25.225Z,65.02
2022-09-28T22:48:58.095Z,65.26
2022-09-28T22:51:27.553Z,66.85
2022-09-28T22:53:56.649Z,66.54
2022-09-28T22:56:24.841Z,66.14
2022-09-28T22:58:52.645Z,67.12
2022-09-28T23:01:26.110Z,66.23
2022-09-28T23:03:54.989Z,66.09
2022-09-28T23:06:26.069Z,66.41
2022-09-28T23:08:53.806Z,66.42
2022-09-28T23:11:21.798Z,66.99
2022-09-28T23:13:53.960Z,68.09
2022-09-28T23:16:23.611Z,67.76
2022-09-28T23:18:53.294Z,67.59
2022-09-28T23:21:24.271Z,69.65
2022-09-28T23:23:57.994Z,68.81
2022-09-28T23:26:29.255Z,68.55
2022-09-28T23:28:57.470Z,66.98
2022-09-28T23:31:28.497Z,66.53
2022-09-28T23:33:59.968Z,67.11
2022-09-28T23:36:28.321Z,67.96
2022-09-28T23:38:55.834Z,67.94
2022-09-28T23:41:23.600Z,68.75
2022-09-28T23:43:51.540Z,68.76
2022-09-28T23:46:21.022Z,67.25
2022-09-28T23:48:50.012Z,66.77
2022-09-28T23:51:18.243Z,67.30
2022-09-28T23:53:46.234Z,66.74
2022-09-28T23:56:14.628Z,68.15
2022-09-28T23:58:42.805Z,67.94
